sensor_id;sensor_type;location;lat;lon;timestamp;temperature;humidity
56162;DHT22;42045;52.986;6.014;2022-08-20T00:02:25;18.70;99.90
56162;DHT22;42045;52.986;6.014;2022-08-20T00:04:51;18.60;99.90
56162;DHT22;42045;52.986;6.014;2022-08-20T00:07:19;18.70;99.90
56162;DHT22;42045;52.986;6.014;2022-08-20T00:09:45;18.70;99.90
56162;DHT22;42045;52.986;6.014;2022-08-20T00:12:12;18.70;99.90
56162;DHT22;42045;52.986;6.014;2022-08-20T00:14:40;18.70;99.90
56162;DHT22;42045;52.986;6.014;2022-08-20T00:17:06;18.70;99.90
56162;DHT22;42045;52.986;6.014;2022-08-20T00:19:33;18.70;99.90
56162;DHT22;42045;52.986;6.014;2022-08-20T00:21:59;18.70;99.90
56162;DHT22;42045;52.986;6.014;2022-08-20T00:24:25;18.60;99.90
56162;DHT22;42045;52.986;6.014;2022-08-20T00:26:51;18.60;99.90
56162;DHT22;42045;52.986;6.014;2022-08-20T00:29:17;18.60;99.90
56162;DHT22;42045;52.986;6.014;2022-08-20T00:31:44;18.60;99.90
56162;DHT22;42045;52.986;6.014;2022-08-20T00:34:10;18.60;99.90
56162;DHT22;42045;52.986;6.014;2022-08-20T00:36:36;18.50;99.90
56162;DHT22;42045;52.986;6.014;2022-08-20T00:39:03;18.50;99.90
56162;DHT22;42045;52.986;6.014;2022-08-20T00:41:29;18.50;99.90
56162;DHT22;42045;52.986;6.014;2022-08-20T00:44:12;18.40;99.90
56162;DHT22;42045;52.986;6.014;2022-08-20T00:46:41;18.40;99.90
56162;DHT22;42045;52.986;6.014;2022-08-20T00:49:14;18.40;99.90
56162;DHT22;42045;52.986;6.014;2022-08-20T00:51:48;18.30;99.90
56162;DHT22;42045;52.986;6.014;2022-08-20T00:57:58;18.20;99.90
56162;DHT22;42045;52.986;6.014;2022-08-20T01:00:03;18.10;99.90
56162;DHT22;42045;52.986;6.014;2022-08-20T01:02:31;18.10;99.90
56162;DHT22;42045;52.986;6.014;2022-08-20T01:04:57;18.00;99.90
56162;DHT22;42045;52.986;6.014;2022-08-20T01:07:26;18.00;99.90
56162;DHT22;42045;52.986;6.014;2022-08-20T01:10:13;18.00;99.90
56162;DHT22;42045;52.986;6.014;2022-08-20T01:12:42;17.90;99.90
56162;DHT22;42045;52.986;6.014;2022-08-20T01:15:18;17.90;99.90
56162;DHT22;42045;52.986;6.014;2022-08-20T01:17:48;17.90;99.90
56162;DHT22;42045;52.986;6.014;2022-08-20T01:20:25;17.80;99.90
56162;DHT22;42045;52.986;6.014;2022-08-20T01:23:00;17.80;99.90
56162;DHT22;42045;52.986;6.014;2022-08-20T01:25:52;17.80;99.90
56162;DHT22;42045;52.986;6.014;2022-08-20T01:28:23;17.70;99.90
56162;DHT22;42045;52.986;6.014;2022-08-20T01:30:51;17.70;99.90
56162;DHT22;42045;52.986;6.014;2022-08-20T01:33:21;17.60;99.90
56162;DHT22;42045;52.986;6.014;2022-08-20T01:35:47;17.60;99.90
56162;DHT22;42045;52.986;6.014;2022-08-20T01:38:16;17.60;99.90
56162;DHT22;42045;52.986;6.014;2022-08-20T01:43:47;17.50;99.90
56162;DHT22;42045;52.986;6.014;2022-08-20T01:46:14;17.50;99.90
56162;DHT22;42045;52.986;6.014;2022-08-20T01:48:41;17.50;99.90
56162;DHT22;42045;52.986;6.014;2022-08-20T01:51:14;17.40;99.90
56162;DHT22;42045;52.986;6.014;2022-08-20T01:53:45;17.40;99.90
56162;DHT22;42045;52.986;6.014;2022-08-20T01:56:14;17.30;99.90
56162;DHT22;42045;52.986;6.014;2022-08-20T01:58:48;17.30;99.90
56162;DHT22;42045;52.986;6.014;2022-08-20T02:01:36;17.20;99.90
56162;DHT22;42045;52.986;6.014;2022-08-20T02:04:05;17.20;99.90
56162;DHT22;42045;52.986;6.014;2022-08-20T02:06:35;17.20;99.90
56162;DHT22;42045;52.986;6.014;2022-08-20T02:09:02;17.20;99.90
56162;DHT22;42045;52.986;6.014;2022-08-20T02:11:30;17.10;99.90
56162;DHT22;42045;52.986;6.014;2022-08-20T02:13:56;17.10;99.90
56162;DHT22;42045;52.986;6.014;2022-08-20T02:16:26;17.10;99.90
56162;DHT22;42045;52.986;6.014;2022-08-20T02:19:18;17.10;99.90
56162;DHT22;42045;52.986;6.014;2022-08-20T02:21:46;17.10;99.90
56162;DHT22;42045;52.986;6.014;2022-08-20T02:24:14;17.10;99.90
56162;DHT22;42045;52.986;6.014;2022-08-20T02:26:40;17.10;99.90
56162;DHT22;42045;52.986;6.014;2022-08-20T02:29:09;17.10;99.90
56162;DHT22;42045;52.986;6.014;2022-08-20T02:31:37;17.10;99.90
56162;DHT22;42045;52.986;6.014;2022-08-20T02:34:06;17.10;99.90
56162;DHT22;42045;52.986;6.014;2022-08-20T02:36:35;17.00;99.90
56162;DHT22;42045;52.986;6.014;2022-08-20T02:39:12;17.00;99.90
56162;DHT22;42045;52.986;6.014;2022-08-20T02:41:39;17.00;99.90
56162;DHT22;42045;52.986;6.014;2022-08-20T02:44:07;17.00;99.90
56162;DHT22;42045;52.986;6.014;2022-08-20T02:46:33;17.00;99.90
56162;DHT22;42045;52.986;6.014;2022-08-20T02:49:00;16.90;99.90
56162;DHT22;42045;52.986;6.014;2022-08-20T02:51:27;16.90;99.90
56162;DHT22;42045;52.986;6.014;2022-08-20T02:53:53;17.00;99.90
56162;DHT22;42045;52.986;6.014;2022-08-20T02:56:19;17.00;99.90
56162;DHT22;42045;52.986;6.014;2022-08-20T02:58:45;17.00;99.90
56162;DHT22;42045;52.986;6.014;2022-08-20T03:01:14;16.90;99.90
56162;DHT22;42045;52.986;6.014;2022-08-20T03:03:41;17.00;99.90
56162;DHT22;42045;52.986;6.014;2022-08-20T03:06:08;17.00;99.90
56162;DHT22;42045;52.986;6.014;2022-08-20T03:08:35;17.00;99.90
56162;DHT22;42045;52.986;6.014;2022-08-20T03:11:03;17.00;99.90
56162;DHT22;42045;52.986;6.014;2022-08-20T03:13:29;17.10;99.90
56162;DHT22;42045;52.986;6.014;2022-08-20T03:15:58;17.00;99.90
56162;DHT22;42045;52.986;6.014;2022-08-20T03:18:31;17.10;99.90
56162;DHT22;42045;52.986;6.014;2022-08-20T03:20:58;17.10;99.90
56162;DHT22;42045;52.986;6.014;2022-08-20T03:23:24;17.10;99.90
56162;DHT22;42045;52.986;6.014;2022-08-20T03:25:51;17.00;99.90
56162;DHT22;42045;52.986;6.014;2022-08-20T03:28:17;17.10;99.90
56162;DHT22;42045;52.986;6.014;2022-08-20T03:30:44;17.00;99.90
56162;DHT22;42045;52.986;6.014;2022-08-20T03:33:11;16.90;99.90
56162;DHT22;42045;52.986;6.014;2022-08-20T03:35:37;16.90;99.90
56162;DHT22;42045;52.986;6.014;2022-08-20T03:38:11;16.90;99.90
56162;DHT22;42045;52.986;6.014;2022-08-20T03:40:37;16.80;99.90
56162;DHT22;42045;52.986;6.014;2022-08-20T03:43:08;16.90;99.90
56162;DHT22;42045;52.986;6.014;2022-08-20T03:45:36;16.80;99.90
56162;DHT22;42045;52.986;6.014;2022-08-20T03:48:04;16.80;99.90
56162;DHT22;42045;52.986;6.014;2022-08-20T03:50:33;16.80;99.90
56162;DHT22;42045;52.986;6.014;2022-08-20T03:52:59;16.80;99.90
56162;DHT22;42045;52.986;6.014;2022-08-20T03:55:28;16.70;99.90
56162;DHT22;42045;52.986;6.014;2022-08-20T03:57:57;16.70;99.90
56162;DHT22;42045;52.986;6.014;2022-08-20T04:00:35;16.70;99.90
56162;DHT22;42045;52.986;6.014;2022-08-20T04:03:01;16.70;99.90
56162;DHT22;42045;52.986;6.014;2022-08-20T04:05:29;16.70;99.90
56162;DHT22;42045;52.986;6.014;2022-08-20T04:07:57;16.70;99.90
56162;DHT22;42045;52.986;6.014;2022-08-20T04:10:24;16.70;99.90
56162;DHT22;42045;52.986;6.014;2022-08-20T04:12:50;16.70;99.90
56162;DHT22;42045;52.986;6.014;2022-08-20T04:15:17;16.70;99.90
56162;DHT22;42045;52.986;6.014;2022-08-20T04:17:46;16.70;99.90
56162;DHT22;42045;52.986;6.014;2022-08-20T04:20:18;16.70;99.90
56162;DHT22;42045;52.986;6.014;2022-08-20T04:22:47;16.70;99.90
56162;DHT22;42045;52.986;6.014;2022-08-20T04:25:13;16.70;99.90
56162;DHT22;42045;52.986;6.014;2022-08-20T04:27:40;16.60;99.90
56162;DHT22;42045;52.986;6.014;2022-08-20T04:30:08;16.60;99.90
56162;DHT22;42045;52.986;6.014;2022-08-20T04:32:40;16.60;99.90
56162;DHT22;42045;52.986;6.014;2022-08-20T04:35:09;16.50;99.90
56162;DHT22;42045;52.986;6.014;2022-08-20T04:37:37;16.50;99.90
56162;DHT22;42045;52.986;6.014;2022-08-20T04:40:09;16.50;99.90
56162;DHT22;42045;52.986;6.014;2022-08-20T04:42:56;16.40;99.90
56162;DHT22;42045;52.986;6.014;2022-08-20T04:45:23;16.40;99.90
56162;DHT22;42045;52.986;6.014;2022-08-20T04:47:50;16.40;99.90
56162;DHT22;42045;52.986;6.014;2022-08-20T04:50:17;16.40;99.90
56162;DHT22;42045;52.986;6.014;2022-08-20T04:52:45;16.30;99.90
56162;DHT22;42045;52.986;6.014;2022-08-20T04:55:14;16.30;99.90
56162;DHT22;42045;52.986;6.014;2022-08-20T04:57:42;16.30;99.90
56162;DHT22;42045;52.986;6.014;2022-08-20T05:00:12;16.30;99.90
56162;DHT22;42045;52.986;6.014;2022-08-20T05:02:45;16.20;99.90
56162;DHT22;42045;52.986;6.014;2022-08-20T05:05:12;16.20;99.90
56162;DHT22;42045;52.986;6.014;2022-08-20T05:07:41;16.20;99.90
56162;DHT22;42045;52.986;6.014;2022-08-20T05:10:11;16.20;99.90
56162;DHT22;42045;52.986;6.014;2022-08-20T05:12:40;16.20;99.90
56162;DHT22;42045;52.986;6.014;2022-08-20T05:15:08;16.20;99.90
56162;DHT22;42045;52.986;6.014;2022-08-20T05:17:41;16.20;99.90
56162;DHT22;42045;52.986;6.014;2022-08-20T05:20:10;16.30;99.90
56162;DHT22;42045;52.986;6.014;2022-08-20T05:22:37;16.50;99.90
56162;DHT22;42045;52.986;6.014;2022-08-20T05:25:04;16.60;99.90
56162;DHT22;42045;52.986;6.014;2022-08-20T05:27:31;16.80;99.90
56162;DHT22;42045;52.986;6.014;2022-08-20T05:30:06;17.50;99.90
56162;DHT22;42045;52.986;6.014;2022-08-20T05:32:35;18.80;99.90
56162;DHT22;42045;52.986;6.014;2022-08-20T05:35:04;20.00;99.90
56162;DHT22;42045;52.986;6.014;2022-08-20T05:37:30;21.00;99.90
56162;DHT22;42045;52.986;6.014;2022-08-20T05:39:56;22.00;99.90
56162;DHT22;42045;52.986;6.014;2022-08-20T05:42:22;22.60;99.90
56162;DHT22;42045;52.986;6.014;2022-08-20T05:44:49;23.20;99.90
56162;DHT22;42045;52.986;6.014;2022-08-20T05:47:15;23.70;99.90
56162;DHT22;42045;52.986;6.014;2022-08-20T05:49:43;24.20;99.90
56162;DHT22;42045;52.986;6.014;2022-08-20T05:52:11;24.70;99.90
56162;DHT22;42045;52.986;6.014;2022-08-20T05:54:37;24.80;99.90
56162;DHT22;42045;52.986;6.014;2022-08-20T05:57:04;25.00;99.90
56162;DHT22;42045;52.986;6.014;2022-08-20T05:59:32;24.70;99.90
56162;DHT22;42045;52.986;6.014;2022-08-20T06:02:01;24.50;99.90
56162;DHT22;42045;52.986;6.014;2022-08-20T06:04:48;24.70;99.90
56162;DHT22;42045;52.986;6.014;2022-08-20T06:07:14;25.10;99.90
56162;DHT22;42045;52.986;6.014;2022-08-20T06:09:41;25.60;99.90
56162;DHT22;42045;52.986;6.014;2022-08-20T06:12:07;26.10;99.50
56162;DHT22;42045;52.986;6.014;2022-08-20T06:14:35;26.40;99.30
56162;DHT22;42045;52.986;6.014;2022-08-20T06:17:19;26.80;98.40
56162;DHT22;42045;52.986;6.014;2022-08-20T06:19:46;27.50;96.70
56162;DHT22;42045;52.986;6.014;2022-08-20T06:22:13;27.90;96.20
56162;DHT22;42045;52.986;6.014;2022-08-20T06:24:40;27.90;95.30
56162;DHT22;42045;52.986;6.014;2022-08-20T06:27:06;28.00;95.00
56162;DHT22;42045;52.986;6.014;2022-08-20T06:29:34;28.10;94.70
56162;DHT22;42045;52.986;6.014;2022-08-20T06:32:01;28.50;94.30
56162;DHT22;42045;52.986;6.014;2022-08-20T06:34:27;29.00;93.80
56162;DHT22;42045;52.986;6.014;2022-08-20T06:36:54;29.50;93.00
56162;DHT22;42045;52.986;6.014;2022-08-20T06:39:22;29.90;92.70
56162;DHT22;42045;52.986;6.014;2022-08-20T06:41:51;30.10;91.80
56162;DHT22;42045;52.986;6.014;2022-08-20T06:44:18;29.50;91.80
56162;DHT22;42045;52.986;6.014;2022-08-20T06:46:44;28.90;92.40
56162;DHT22;42045;52.986;6.014;2022-08-20T06:49:10;28.20;93.10
56162;DHT22;42045;52.986;6.014;2022-08-20T06:51:37;27.90;93.40
56162;DHT22;42045;52.986;6.014;2022-08-20T06:54:04;27.80;93.60
56162;DHT22;42045;52.986;6.014;2022-08-20T06:56:31;27.90;93.70
56162;DHT22;42045;52.986;6.014;2022-08-20T06:58:58;28.20;93.30
56162;DHT22;42045;52.986;6.014;2022-08-20T07:01:24;28.50;93.00
56162;DHT22;42045;52.986;6.014;2022-08-20T07:03:50;28.80;92.50
56162;DHT22;42045;52.986;6.014;2022-08-20T07:06:17;28.50;92.80
56162;DHT22;42045;52.986;6.014;2022-08-20T07:08:43;28.10;92.30
56162;DHT22;42045;52.986;6.014;2022-08-20T07:11:10;27.60;92.30
56162;DHT22;42045;52.986;6.014;2022-08-20T07:13:37;27.30;93.20
56162;DHT22;42045;52.986;6.014;2022-08-20T07:16:05;27.20;92.90
56162;DHT22;42045;52.986;6.014;2022-08-20T07:18:32;27.00;93.20
56162;DHT22;42045;52.986;6.014;2022-08-20T07:20:58;27.00;93.00
56162;DHT22;42045;52.986;6.014;2022-08-20T07:23:25;26.60;93.60
56162;DHT22;42045;52.986;6.014;2022-08-20T07:25:52;26.80;93.30
56162;DHT22;42045;52.986;6.014;2022-08-20T07:28:23;26.80;92.10
56162;DHT22;42045;52.986;6.014;2022-08-20T07:30:52;26.60;92.00
56162;DHT22;42045;52.986;6.014;2022-08-20T07:33:36;26.70;92.20
56162;DHT22;42045;52.986;6.014;2022-08-20T07:36:04;26.70;92.60
56162;DHT22;42045;52.986;6.014;2022-08-20T07:38:32;26.40;91.90
56162;DHT22;42045;52.986;6.014;2022-08-20T07:41:02;26.20;92.10
56162;DHT22;42045;52.986;6.014;2022-08-20T07:43:28;26.10;91.70
56162;DHT22;42045;52.986;6.014;2022-08-20T07:45:58;26.10;91.80
56162;DHT22;42045;52.986;6.014;2022-08-20T07:48:27;26.10;92.30
56162;DHT22;42045;52.986;6.014;2022-08-20T07:51:03;26.10;92.70
56162;DHT22;42045;52.986;6.014;2022-08-20T07:53:30;25.90;91.80
56162;DHT22;42045;52.986;6.014;2022-08-20T07:55:59;26.00;92.70
56162;DHT22;42045;52.986;6.014;2022-08-20T07:58:25;25.90;92.40
56162;DHT22;42045;52.986;6.014;2022-08-20T08:00:51;25.70;92.10
56162;DHT22;42045;52.986;6.014;2022-08-20T08:03:17;25.80;92.00
56162;DHT22;42045;52.986;6.014;2022-08-20T08:05:46;25.80;92.00
56162;DHT22;42045;52.986;6.014;2022-08-20T08:08:20;25.70;92.50
56162;DHT22;42045;52.986;6.014;2022-08-20T08:10:59;25.90;92.80
56162;DHT22;42045;52.986;6.014;2022-08-20T08:13:28;25.90;92.40
56162;DHT22;42045;52.986;6.014;2022-08-20T08:15:58;25.70;92.90
56162;DHT22;42045;52.986;6.014;2022-08-20T08:18:30;25.90;92.70
56162;DHT22;42045;52.986;6.014;2022-08-20T08:20:59;25.80;91.10
56162;DHT22;42045;52.986;6.014;2022-08-20T08:23:25;25.80;91.40
56162;DHT22;42045;52.986;6.014;2022-08-20T08:25:52;25.80;91.80
56162;DHT22;42045;52.986;6.014;2022-08-20T08:28:19;25.80;91.70
56162;DHT22;42045;52.986;6.014;2022-08-20T08:30:46;25.80;91.10
56162;DHT22;42045;52.986;6.014;2022-08-20T08:33:29;25.70;90.40
56162;DHT22;42045;52.986;6.014;2022-08-20T08:36:13;25.70;90.40
56162;DHT22;42045;52.986;6.014;2022-08-20T08:38:41;25.60;90.50
56162;DHT22;42045;52.986;6.014;2022-08-20T08:41:41;25.50;91.20
56162;DHT22;42045;52.986;6.014;2022-08-20T08:46:51;25.20;91.00
56162;DHT22;42045;52.986;6.014;2022-08-20T08:49:21;25.30;91.10
56162;DHT22;42045;52.986;6.014;2022-08-20T08:51:53;25.40;90.80
56162;DHT22;42045;52.986;6.014;2022-08-20T08:54:25;25.50;91.10
56162;DHT22;42045;52.986;6.014;2022-08-20T08:56:53;25.50;90.30
56162;DHT22;42045;52.986;6.014;2022-08-20T08:59:21;25.50;90.60
56162;DHT22;42045;52.986;6.014;2022-08-20T09:01:53;25.50;90.30
56162;DHT22;42045;52.986;6.014;2022-08-20T09:04:20;25.50;90.60
56162;DHT22;42045;52.986;6.014;2022-08-20T09:06:49;25.50;91.30
56162;DHT22;42045;52.986;6.014;2022-08-20T09:09:21;25.40;90.10
56162;DHT22;42045;52.986;6.014;2022-08-20T09:11:50;25.50;90.40
56162;DHT22;42045;52.986;6.014;2022-08-20T09:14:18;25.60;90.90
56162;DHT22;42045;52.986;6.014;2022-08-20T09:16:44;25.70;89.60
56162;DHT22;42045;52.986;6.014;2022-08-20T09:19:11;25.80;89.40
56162;DHT22;42045;52.986;6.014;2022-08-20T09:21:38;25.90;90.60
56162;DHT22;42045;52.986;6.014;2022-08-20T09:24:03;25.60;90.20
56162;DHT22;42045;52.986;6.014;2022-08-20T09:26:30;25.50;88.70
56162;DHT22;42045;52.986;6.014;2022-08-20T09:28:56;25.70;90.20
56162;DHT22;42045;52.986;6.014;2022-08-20T09:31:22;25.70;90.40
56162;DHT22;42045;52.986;6.014;2022-08-20T09:33:50;25.70;89.90
56162;DHT22;42045;52.986;6.014;2022-08-20T09:36:16;25.70;90.10
56162;DHT22;42045;52.986;6.014;2022-08-20T09:38:47;25.70;90.40
56162;DHT22;42045;52.986;6.014;2022-08-20T09:41:13;25.80;91.10
56162;DHT22;42045;52.986;6.014;2022-08-20T09:43:39;26.00;90.70
56162;DHT22;42045;52.986;6.014;2022-08-20T09:46:05;26.00;91.10
56162;DHT22;42045;52.986;6.014;2022-08-20T09:48:31;26.10;91.60
56162;DHT22;42045;52.986;6.014;2022-08-20T09:50:57;26.10;90.50
56162;DHT22;42045;52.986;6.014;2022-08-20T09:53:23;26.20;90.90
56162;DHT22;42045;52.986;6.014;2022-08-20T09:55:52;26.20;90.50
56162;DHT22;42045;52.986;6.014;2022-08-20T10:00:56;26.20;89.80
56162;DHT22;42045;52.986;6.014;2022-08-20T10:03:23;26.30;89.90
56162;DHT22;42045;52.986;6.014;2022-08-20T10:05:49;26.40;88.60
56162;DHT22;42045;52.986;6.014;2022-08-20T10:08:15;26.30;88.60
56162;DHT22;42045;52.986;6.014;2022-08-20T10:10:41;25.90;89.10
56162;DHT22;42045;52.986;6.014;2022-08-20T10:13:07;25.80;90.20
56162;DHT22;42045;52.986;6.014;2022-08-20T10:15:33;26.00;90.30
56162;DHT22;42045;52.986;6.014;2022-08-20T10:18:02;26.40;90.50
56162;DHT22;42045;52.986;6.014;2022-08-20T10:20:30;26.20;89.90
56162;DHT22;42045;52.986;6.014;2022-08-20T10:22:56;26.10;88.60
56162;DHT22;42045;52.986;6.014;2022-08-20T10:25:22;26.20;89.60
56162;DHT22;42045;52.986;6.014;2022-08-20T10:27:48;26.30;88.30
56162;DHT22;42045;52.986;6.014;2022-08-20T10:30:24;26.40;89.10
56162;DHT22;42045;52.986;6.014;2022-08-20T10:32:50;26.30;88.90
56162;DHT22;42045;52.986;6.014;2022-08-20T10:35:16;26.10;90.00
56162;DHT22;42045;52.986;6.014;2022-08-20T10:37:42;25.90;90.40
56162;DHT22;42045;52.986;6.014;2022-08-20T10:40:10;25.80;90.50
56162;DHT22;42045;52.986;6.014;2022-08-20T10:42:36;25.60;90.60
56162;DHT22;42045;52.986;6.014;2022-08-20T10:45:02;25.50;90.40
56162;DHT22;42045;52.986;6.014;2022-08-20T10:47:31;25.50;90.70
56162;DHT22;42045;52.986;6.014;2022-08-20T10:49:59;25.50;90.70
56162;DHT22;42045;52.986;6.014;2022-08-20T10:52:27;25.80;90.60
56162;DHT22;42045;52.986;6.014;2022-08-20T10:54:53;25.90;89.90
56162;DHT22;42045;52.986;6.014;2022-08-20T10:57:30;26.20;90.00
56162;DHT22;42045;52.986;6.014;2022-08-20T10:59:58;26.00;88.00
56162;DHT22;42045;52.986;6.014;2022-08-20T11:02:24;25.90;89.10
56162;DHT22;42045;52.986;6.014;2022-08-20T11:04:51;25.60;89.70
56162;DHT22;42045;52.986;6.014;2022-08-20T11:07:28;25.40;90.20
56162;DHT22;42045;52.986;6.014;2022-08-20T11:09:54;25.20;90.50
56162;DHT22;42045;52.986;6.014;2022-08-20T11:12:21;25.10;90.80
56162;DHT22;42045;52.986;6.014;2022-08-20T11:14:50;24.90;90.70
56162;DHT22;42045;52.986;6.014;2022-08-20T11:17:23;24.90;90.60
56162;DHT22;42045;52.986;6.014;2022-08-20T11:19:57;24.70;90.20
56162;DHT22;42045;52.986;6.014;2022-08-20T11:22:23;24.50;90.40
56162;DHT22;42045;52.986;6.014;2022-08-20T11:24:49;24.40;90.70
56162;DHT22;42045;52.986;6.014;2022-08-20T11:27:22;24.20;90.90
56162;DHT22;42045;52.986;6.014;2022-08-20T11:29:49;24.10;91.10
56162;DHT22;42045;52.986;6.014;2022-08-20T11:32:16;24.10;91.10
56162;DHT22;42045;52.986;6.014;2022-08-20T11:34:43;24.10;88.60
56162;DHT22;42045;52.986;6.014;2022-08-20T11:37:12;24.20;89.30
56162;DHT22;42045;52.986;6.014;2022-08-20T11:39:43;24.40;87.10
56162;DHT22;42045;52.986;6.014;2022-08-20T11:42:10;24.60;87.50
56162;DHT22;42045;52.986;6.014;2022-08-20T11:44:36;24.90;86.80
56162;DHT22;42045;52.986;6.014;2022-08-20T11:47:04;25.10;85.20
56162;DHT22;42045;52.986;6.014;2022-08-20T11:49:32;25.20;85.10
56162;DHT22;42045;52.986;6.014;2022-08-20T11:51:59;25.30;85.50
56162;DHT22;42045;52.986;6.014;2022-08-20T11:54:25;25.60;85.70
56162;DHT22;42045;52.986;6.014;2022-08-20T11:56:54;25.50;85.00
56162;DHT22;42045;52.986;6.014;2022-08-20T11:59:27;25.40;85.30
56162;DHT22;42045;52.986;6.014;2022-08-20T12:01:53;25.10;83.70
56162;DHT22;42045;52.986;6.014;2022-08-20T12:04:23;25.10;85.10
56162;DHT22;42045;52.986;6.014;2022-08-20T12:06:49;25.00;85.80
56162;DHT22;42045;52.986;6.014;2022-08-20T12:09:15;24.80;86.40
56162;DHT22;42045;52.986;6.014;2022-08-20T12:11:42;24.60;86.90
56162;DHT22;42045;52.986;6.014;2022-08-20T12:14:09;24.30;87.40
56162;DHT22;42045;52.986;6.014;2022-08-20T12:16:35;24.60;88.60
56162;DHT22;42045;52.986;6.014;2022-08-20T12:19:01;24.90;89.10
56162;DHT22;42045;52.986;6.014;2022-08-20T12:21:27;25.30;89.50
56162;DHT22;42045;52.986;6.014;2022-08-20T12:23:54;25.50;86.80
56162;DHT22;42045;52.986;6.014;2022-08-20T12:26:20;25.50;87.80
56162;DHT22;42045;52.986;6.014;2022-08-20T12:28:46;25.50;89.30
56162;DHT22;42045;52.986;6.014;2022-08-20T12:31:12;25.40;86.90
56162;DHT22;42045;52.986;6.014;2022-08-20T12:33:38;25.30;86.90
56162;DHT22;42045;52.986;6.014;2022-08-20T12:36:04;25.30;87.30
56162;DHT22;42045;52.986;6.014;2022-08-20T12:38:30;25.10;88.90
56162;DHT22;42045;52.986;6.014;2022-08-20T12:40:56;24.90;88.50
56162;DHT22;42045;52.986;6.014;2022-08-20T12:43:22;25.00;90.20
56162;DHT22;42045;52.986;6.014;2022-08-20T12:45:48;25.30;90.60
56162;DHT22;42045;52.986;6.014;2022-08-20T12:48:14;25.60;90.50
56162;DHT22;42045;52.986;6.014;2022-08-20T12:50:42;25.70;89.20
56162;DHT22;42045;52.986;6.014;2022-08-20T12:53:10;25.80;90.20
56162;DHT22;42045;52.986;6.014;2022-08-20T12:55:37;25.60;88.80
56162;DHT22;42045;52.986;6.014;2022-08-20T12:58:06;25.70;89.40
56162;DHT22;42045;52.986;6.014;2022-08-20T13:00:35;25.80;89.80
56162;DHT22;42045;52.986;6.014;2022-08-20T13:03:04;25.90;90.20
56162;DHT22;42045;52.986;6.014;2022-08-20T13:05:33;26.00;90.00
56162;DHT22;42045;52.986;6.014;2022-08-20T13:08:00;26.10;90.10
56162;DHT22;42045;52.986;6.014;2022-08-20T13:10:31;26.10;89.30
56162;DHT22;42045;52.986;6.014;2022-08-20T13:12:59;25.70;90.00
56162;DHT22;42045;52.986;6.014;2022-08-20T13:15:29;25.70;90.30
56162;DHT22;42045;52.986;6.014;2022-08-20T13:17:57;25.80;88.20
56162;DHT22;42045;52.986;6.014;2022-08-20T13:20:25;25.80;90.00
56162;DHT22;42045;52.986;6.014;2022-08-20T13:22:52;25.90;90.80
56162;DHT22;42045;52.986;6.014;2022-08-20T13:25:19;25.80;89.20
56162;DHT22;42045;52.986;6.014;2022-08-20T13:27:45;25.60;88.50
56162;DHT22;42045;52.986;6.014;2022-08-20T13:30:16;25.50;90.10
56162;DHT22;42045;52.986;6.014;2022-08-20T13:32:42;25.30;89.00
56162;DHT22;42045;52.986;6.014;2022-08-20T13:35:08;25.20;91.20
56162;DHT22;42045;52.986;6.014;2022-08-20T13:37:37;25.20;90.90
56162;DHT22;42045;52.986;6.014;2022-08-20T13:40:05;25.10;88.60
56162;DHT22;42045;52.986;6.014;2022-08-20T13:42:34;25.20;90.70
56162;DHT22;42045;52.986;6.014;2022-08-20T13:45:00;25.20;90.60
56162;DHT22;42045;52.986;6.014;2022-08-20T13:47:34;25.40;90.10
56162;DHT22;42045;52.986;6.014;2022-08-20T13:50:08;25.30;89.90
56162;DHT22;42045;52.986;6.014;2022-08-20T13:52:35;25.20;89.00
56162;DHT22;42045;52.986;6.014;2022-08-20T13:55:03;25.10;89.50
56162;DHT22;42045;52.986;6.014;2022-08-20T13:57:29;25.00;90.60
56162;DHT22;42045;52.986;6.014;2022-08-20T13:59:56;25.10;90.40
56162;DHT22;42045;52.986;6.014;2022-08-20T14:02:24;25.10;89.30
56162;DHT22;42045;52.986;6.014;2022-08-20T14:04:50;25.10;90.10
56162;DHT22;42045;52.986;6.014;2022-08-20T14:07:20;25.20;90.30
56162;DHT22;42045;52.986;6.014;2022-08-20T14:09:52;25.10;90.20
56162;DHT22;42045;52.986;6.014;2022-08-20T14:12:19;24.70;90.00
56162;DHT22;42045;52.986;6.014;2022-08-20T14:14:48;24.60;90.60
56162;DHT22;42045;52.986;6.014;2022-08-20T14:17:39;24.40;90.30
56162;DHT22;42045;52.986;6.014;2022-08-20T14:20:12;24.30;90.30
56162;DHT22;42045;52.986;6.014;2022-08-20T14:22:39;24.10;90.30
56162;DHT22;42045;52.986;6.014;2022-08-20T14:25:07;24.20;91.10
56162;DHT22;42045;52.986;6.014;2022-08-20T14:27:34;24.20;91.10
56162;DHT22;42045;52.986;6.014;2022-08-20T14:30:01;24.30;90.90
56162;DHT22;42045;52.986;6.014;2022-08-20T14:32:27;24.30;90.30
56162;DHT22;42045;52.986;6.014;2022-08-20T14:34:53;24.20;90.60
56162;DHT22;42045;52.986;6.014;2022-08-20T14:37:25;24.30;90.60
56162;DHT22;42045;52.986;6.014;2022-08-20T14:39:56;24.30;91.80
56162;DHT22;42045;52.986;6.014;2022-08-20T14:42:23;24.30;90.70
56162;DHT22;42045;52.986;6.014;2022-08-20T14:44:51;24.20;91.20
56162;DHT22;42045;52.986;6.014;2022-08-20T14:49:49;24.30;90.90
56162;DHT22;42045;52.986;6.014;2022-08-20T14:52:17;24.40;90.90
56162;DHT22;42045;52.986;6.014;2022-08-20T14:54:43;24.40;90.60
56162;DHT22;42045;52.986;6.014;2022-08-20T14:57:10;24.50;91.10
56162;DHT22;42045;52.986;6.014;2022-08-20T14:59:37;24.50;91.10
56162;DHT22;42045;52.986;6.014;2022-08-20T15:02:08;24.60;91.10
56162;DHT22;42045;52.986;6.014;2022-08-20T15:04:35;24.60;90.80
56162;DHT22;42045;52.986;6.014;2022-08-20T15:07:02;24.40;90.10
56162;DHT22;42045;52.986;6.014;2022-08-20T15:09:33;24.40;90.40
56162;DHT22;42045;52.986;6.014;2022-08-20T15:11:59;24.40;90.50
56162;DHT22;42045;52.986;6.014;2022-08-20T15:14:26;24.30;90.20
56162;DHT22;42045;52.986;6.014;2022-08-20T15:16:53;24.40;91.00
56162;DHT22;42045;52.986;6.014;2022-08-20T15:19:20;24.60;91.00
56162;DHT22;42045;52.986;6.014;2022-08-20T15:21:46;24.50;90.80
56162;DHT22;42045;52.986;6.014;2022-08-20T15:24:14;24.50;90.50
56162;DHT22;42045;52.986;6.014;2022-08-20T15:26:41;24.60;90.30
56162;DHT22;42045;52.986;6.014;2022-08-20T15:29:07;24.40;91.30
56162;DHT22;42045;52.986;6.014;2022-08-20T15:31:33;24.30;91.00
56162;DHT22;42045;52.986;6.014;2022-08-20T15:33:59;24.10;91.10
56162;DHT22;42045;52.986;6.014;2022-08-20T15:36:25;24.00;91.10
56162;DHT22;42045;52.986;6.014;2022-08-20T15:38:51;24.10;91.50
56162;DHT22;42045;52.986;6.014;2022-08-20T15:41:17;24.10;91.40
56162;DHT22;42045;52.986;6.014;2022-08-20T15:43:43;24.10;90.90
56162;DHT22;42045;52.986;6.014;2022-08-20T15:46:09;24.00;91.20
56162;DHT22;42045;52.986;6.014;2022-08-20T15:48:42;23.90;91.10
56162;DHT22;42045;52.986;6.014;2022-08-20T15:51:37;23.80;91.00
56162;DHT22;42045;52.986;6.014;2022-08-20T15:59:40;23.50;92.00